createdAt,value
2023-04-13T00:01:15.985Z,72.67
2023-04-13T00:03:45.576Z,72.41
2023-04-13T00:06:12.992Z,73.21
2023-04-13T00:08:42.889Z,73.08
2023-04-13T00:11:10.669Z,72.99
2023-04-13T00:13:41.190Z,73.85
2023-04-13T00:16:13.825Z,73.30
2023-04-13T00:18:41.204Z,73.83
2023-04-13T00:21:08.853Z,73.66
2023-04-13T00:23:36.243Z,73.59
2023-04-13T00:26:03.898Z,73.39
2023-04-13T00:28:31.176Z,73.32
2023-04-13T00:30:58.526Z,73.12
2023-04-13T00:33:27.435Z,73.15
2023-04-13T00:35:54.704Z,73.38
2023-04-13T00:38:24.000Z,73.85
2023-04-13T00:40:51.337Z,73.69
2023-04-13T00:43:18.702Z,74.25
2023-04-13T00:45:46.041Z,74.14
2023-04-13T00:48:13.630Z,73.59
2023-04-13T00:50:42.482Z,74.21
2023-04-13T00:53:13.059Z,74.30
2023-04-13T00:55:42.529Z,74.20
2023-04-13T00:58:09.966Z,74.47
2023-04-13T01:00:38.951Z,73.86
2023-04-13T01:03:06.480Z,73.73
2023-04-13T01:05:36.498Z,73.21
2023-04-13T01:08:09.657Z,73.36
2023-04-13T01:10:39.779Z,73.48
2023-04-13T01:13:11.206Z,73.28
2023-04-13T01:15:41.396Z,73.73
2023-04-13T01:18:10.670Z,73.18
2023-04-13T01:20:39.069Z,73.24
2023-04-13T01:23:10.028Z,74.18
2023-04-13T01:25:40.834Z,73.89
2023-04-13T01:28:10.221Z,73.75
2023-04-13T01:30:38.790Z,73.89
2023-04-13T01:33:06.748Z,73.67
2023-04-13T01:35:34.293Z,73.45
2023-04-13T01:38:02.191Z,73.92
2023-04-13T01:40:30.267Z,72.70
2023-04-13T01:42:58.089Z,73.33
2023-04-13T01:45:28.317Z,73.73
2023-04-13T01:47:59.412Z,73.34
2023-04-13T01:50:28.636Z,73.59
2023-04-13T01:52:58.582Z,73.47
2023-04-13T01:55:26.418Z,73.86
2023-04-13T01:57:55.976Z,73.80
2023-04-13T02:00:23.254Z,74.46
2023-04-13T02:02:54.320Z,74.54
2023-04-13T02:05:21.801Z,74.18
2023-04-13T02:07:49.068Z,74.59
2023-04-13T02:10:16.322Z,74.91
2023-04-13T02:12:44.549Z,75.01
2023-04-13T02:15:12.084Z,74.86
2023-04-13T02:17:39.968Z,75.25
2023-04-13T02:20:12.198Z,75.31
2023-04-13T02:22:41.492Z,76.18
2023-04-13T02:25:11.267Z,75.84
2023-04-13T02:27:39.557Z,75.78
2023-04-13T02:30:07.644Z,75.45
2023-04-13T02:32:36.020Z,74.63
2023-04-13T02:35:03.982Z,75.43
2023-04-13T02:37:32.942Z,74.02
2023-04-13T02:40:00.243Z,73.67
2023-04-13T02:42:27.909Z,73.44
2023-04-13T02:44:55.206Z,72.77
2023-04-13T02:47:22.599Z,72.97
2023-04-13T02:49:49.918Z,73.19
2023-04-13T02:52:17.547Z,73.02
2023-04-13T02:54:46.588Z,73.43
2023-04-13T02:57:14.640Z,73.53
2023-04-13T02:59:41.924Z,73.77
2023-04-13T03:02:09.873Z,73.19
2023-04-13T03:04:37.296Z,73.33
2023-04-13T03:07:09.291Z,73.81
2023-04-13T03:09:36.574Z,74.11
2023-04-13T03:12:07.373Z,73.43
2023-04-13T03:14:36.713Z,73.46
2023-04-13T03:17:04.408Z,71.41
2023-04-13T03:19:32.077Z,71.49
2023-04-13T03:21:59.380Z,71.32
2023-04-13T03:24:28.133Z,70.86
2023-04-13T03:26:56.923Z,70.45
2023-04-13T03:29:25.664Z,70.48
2023-04-13T03:31:52.951Z,69.81
2023-04-13T03:34:20.220Z,69.23
2023-04-13T03:36:47.509Z,70.25
2023-04-13T03:39:14.775Z,70.54
2023-04-13T03:41:42.052Z,69.86
2023-04-13T03:44:09.555Z,70.48
2023-04-13T03:46:38.242Z,69.50
2023-04-13T03:49:08.435Z,69.68
2023-04-13T03:51:35.813Z,70.37
2023-04-13T03:54:03.154Z,70.11
2023-04-13T03:56:30.788Z,69.89
2023-04-13T03:58:58.973Z,69.03
2023-04-13T04:01:27.027Z,69.48
2023-04-13T04:03:57.440Z,68.66
2023-04-13T04:06:27.045Z,69.45
2023-04-13T04:08:54.375Z,69.20
2023-04-13T04:11:22.207Z,68.27
2023-04-13T04:13:49.734Z,68.80
2023-04-13T04:16:17.181Z,69.06
2023-04-13T04:18:44.533Z,69.00
2023-04-13T04:21:13.213Z,67.41
2023-04-13T04:23:40.501Z,68.66
2023-04-13T04:26:08.189Z,69.23
2023-04-13T04:28:38.721Z,69.23
2023-04-13T04:31:07.105Z,68.90
2023-04-13T04:33:34.751Z,68.83
2023-04-13T04:36:02.138Z,69.25
2023-04-13T04:38:32.780Z,69.76
2023-04-13T04:41:01.995Z,69.56
2023-04-13T04:43:30.254Z,70.26
2023-04-13T04:45:58.511Z,70.49
2023-04-13T04:48:26.604Z,70.06
2023-04-13T04:50:55.859Z,71.13
2023-04-13T04:53:23.243Z,70.17
2023-04-13T04:55:52.320Z,70.97
2023-04-13T04:58:20.570Z,70.62
2023-04-13T05:00:47.948Z,71.19
2023-04-13T05:03:15.675Z,71.16
2023-04-13T05:05:43.435Z,70.40
2023-04-13T05:08:11.646Z,70.45
2023-04-13T05:10:43.886Z,70.79
2023-04-13T05:13:12.856Z,70.79
2023-04-13T05:15:40.138Z,70.70
2023-04-13T05:18:07.415Z,71.07
2023-04-13T05:20:35.178Z,70.46
2023-04-13T05:23:03.055Z,70.73
2023-04-13T05:25:30.704Z,70.21
2023-04-13T05:27:57.973Z,70.84
2023-04-13T05:30:26.580Z,70.35
2023-04-13T05:32:53.926Z,71.49
2023-04-13T05:35:23.420Z,70.42
2023-04-13T05:37:50.996Z,68.96
2023-04-13T05:40:18.551Z,68.50
2023-04-13T05:42:46.670Z,68.60
2023-04-13T05:45:16.733Z,68.22
2023-04-13T05:47:45.898Z,67.67
2023-04-13T05:50:14.014Z,66.32
2023-04-13T05:52:41.290Z,64.47
2023-04-13T05:55:08.842Z,64.58
2023-04-13T05:57:36.137Z,65.28
2023-04-13T06:00:03.942Z,65.01
2023-04-13T06:02:32.153Z,63.76
2023-04-13T06:05:01.941Z,63.58
2023-04-13T06:07:29.621Z,62.78
2023-04-13T06:09:56.897Z,61.97
2023-04-13T06:12:24.159Z,61.73
2023-04-13T06:14:51.937Z,61.59
2023-04-13T06:17:19.271Z,61.62
2023-04-13T06:19:46.561Z,61.26
2023-04-13T06:22:15.127Z,61.70
2023-04-13T06:24:42.370Z,60.97
2023-04-13T06:27:09.643Z,61.32
2023-04-13T06:29:37.487Z,60.89
2023-04-13T06:32:06.596Z,62.02
2023-04-13T06:34:33.882Z,59.64
2023-04-13T06:37:01.841Z,61.29
2023-04-13T06:39:32.781Z,60.81
2023-04-13T06:42:01.333Z,61.15
2023-04-13T06:44:28.598Z,60.88
2023-04-13T06:46:56.231Z,60.64
2023-04-13T06:49:23.637Z,60.17
2023-04-13T06:51:51.380Z,60.82
2023-04-13T06:54:18.682Z,60.91
2023-04-13T06:56:47.285Z,61.11
2023-04-13T06:59:14.578Z,60.99
2023-04-13T07:01:41.958Z,60.63
2023-04-13T07:04:09.402Z,60.13
2023-04-13T07:06:36.728Z,59.85
2023-04-13T07:09:04.082Z,59.69
2023-04-13T07:11:31.358Z,59.46
2023-04-13T07:13:59.922Z,58.33
2023-04-13T07:16:27.357Z,58.37
2023-04-13T07:18:54.949Z,57.85
2023-04-13T07:21:22.273Z,58.06
2023-04-13T07:23:49.953Z,58.98
2023-04-13T07:26:18.254Z,57.33
2023-04-13T07:28:45.992Z,57.55
2023-04-13T07:31:14.631Z,57.62
2023-04-13T07:33:41.916Z,55.96
2023-04-13T07:36:09.930Z,56.37
2023-04-13T07:38:37.181Z,56.95
2023-04-13T07:41:04.489Z,58.12
2023-04-13T07:43:31.785Z,59.31
2023-04-13T07:45:59.042Z,58.99
2023-04-13T07:48:27.626Z,57.86
2023-04-13T07:50:54.886Z,58.19
2023-04-13T07:53:22.178Z,57.87
2023-04-13T07:55:49.439Z,56.63
2023-04-13T07:58:16.970Z,57.05
2023-04-13T08:00:44.260Z,56.00
2023-04-13T08:03:12.279Z,55.65
2023-04-13T08:05:41.086Z,54.33
2023-04-13T08:08:08.358Z,54.87
2023-04-13T08:10:36.439Z,54.48
2023-04-13T08:13:03.688Z,52.77
2023-04-13T08:15:31.378Z,53.88
2023-04-13T08:17:59.692Z,54.28
2023-04-13T08:20:27.021Z,51.56
2023-04-13T08:22:55.576Z,52.40
2023-04-13T08:25:22.890Z,52.38
2023-04-13T08:27:50.497Z,52.60
2023-04-13T08:30:17.833Z,53.27
2023-04-13T08:32:45.452Z,54.07
2023-04-13T08:35:13.122Z,53.28
2023-04-13T08:37:40.490Z,53.78
2023-04-13T08:40:11.913Z,53.28
2023-04-13T08:42:39.633Z,53.95
2023-04-13T08:45:07.633Z,53.56
2023-04-13T08:47:35.237Z,52.75
2023-04-13T08:50:03.227Z,50.38
2023-04-13T08:52:30.742Z,49.88
2023-04-13T08:54:59.135Z,49.25
2023-04-13T08:57:28.561Z,49.17
2023-04-13T08:59:57.472Z,48.75
2023-04-13T09:02:26.217Z,48.88
2023-04-13T09:04:55.140Z,49.19
2023-04-13T09:07:26.558Z,47.60
2023-04-13T09:09:55.104Z,49.45
2023-04-13T09:12:22.426Z,49.16
2023-04-13T09:14:51.135Z,49.88
2023-04-13T09:17:26.732Z,49.82
2023-04-13T09:19:54.289Z,50.52
2023-04-13T09:22:22.625Z,50.38
2023-04-13T09:24:49.893Z,49.12
2023-04-13T09:27:20.886Z,49.41
2023-04-13T09:29:54.337Z,50.41
2023-04-13T09:32:22.624Z,49.30
2023-04-13T09:34:59.959Z,49.76
2023-04-13T09:37:34.160Z,50.15
2023-04-13T09:40:11.508Z,49.63
2023-04-13T09:42:39.592Z,49.27
2023-04-13T09:45:09.725Z,49.45
2023-04-13T09:47:38.614Z,50.48
2023-04-13T09:50:07.082Z,49.84
2023-04-13T09:52:34.423Z,49.56
2023-04-13T09:55:01.712Z,49.92
2023-04-13T09:57:29.840Z,49.02
2023-04-13T10:00:00.636Z,49.57
2023-04-13T10:02:29.698Z,50.51
2023-04-13T10:04:57.526Z,49.06
2023-04-13T10:07:29.400Z,48.77
2023-04-13T10:09:56.666Z,49.56
2023-04-13T10:12:26.608Z,49.03
2023-04-13T10:14:57.765Z,48.35
2023-04-13T10:17:32.482Z,49.54
2023-04-13T10:20:01.157Z,48.47
2023-04-13T10:22:29.799Z,48.24
2023-04-13T10:24:57.167Z,48.31
2023-04-13T10:27:28.326Z,46.77
2023-04-13T10:29:55.906Z,47.48
2023-04-13T10:32:23.888Z,47.14
2023-04-13T10:34:53.141Z,47.86
2023-04-13T10:37:21.736Z,45.59
2023-04-13T10:39:49.905Z,47.09
2023-04-13T10:42:18.220Z,46.22
2023-04-13T10:44:46.559Z,45.34
2023-04-13T10:47:14.185Z,44.48
2023-04-13T10:49:41.843Z,43.11
2023-04-13T10:52:11.691Z,44.67
2023-04-13T10:54:39.422Z,42.80
2023-04-13T10:57:08.982Z,46.02
2023-04-13T10:59:56.262Z,42.73
2023-04-13T11:02:26.870Z,43.52
2023-04-13T11:04:54.763Z,44.33
2023-04-13T11:07:25.415Z,43.04
2023-04-13T11:10:02.902Z,42.96
2023-04-13T11:12:30.536Z,44.41
2023-04-13T11:14:57.859Z,41.74
2023-04-13T11:17:25.297Z,41.47
2023-04-13T11:19:53.352Z,43.94
2023-04-13T11:22:22.841Z,42.02
2023-04-13T11:24:52.055Z,44.03
2023-04-13T11:27:20.277Z,43.13
2023-04-13T11:29:47.833Z,42.10
2023-04-13T11:32:19.486Z,40.05
2023-04-13T11:34:49.267Z,42.40
2023-04-13T11:37:17.849Z,41.97
2023-04-13T11:39:45.239Z,42.08
2023-04-13T11:42:13.991Z,42.80
2023-04-13T11:44:43.137Z,42.59
2023-04-13T11:47:13.179Z,42.47
2023-04-13T11:49:47.749Z,43.70
2023-04-13T11:52:15.682Z,42.14
2023-04-13T11:54:44.593Z,42.93
2023-04-13T11:57:22.930Z,42.32
2023-04-13T11:59:52.661Z,43.79
2023-04-13T12:02:29.436Z,42.45
2023-04-13T12:04:57.914Z,42.73
2023-04-13T12:07:26.249Z,41.13
2023-04-13T12:09:56.862Z,42.04
2023-04-13T12:17:39.950Z,42.75
2023-04-13T12:20:15.663Z,40.79
2023-04-13T12:25:14.702Z,40.53
2023-04-13T12:27:42.379Z,41.44
2023-04-13T12:30:13.117Z,40.84
2023-04-13T12:32:41.249Z,39.74
2023-04-13T12:35:08.903Z,39.86
2023-04-13T12:37:39.870Z,40.26
2023-04-13T12:40:10.269Z,39.89
2023-04-13T12:42:37.621Z,40.59
2023-04-13T12:45:05.338Z,40.62
2023-04-13T12:47:33.998Z,41.35
2023-04-13T12:50:01.327Z,40.98
2023-04-13T12:52:32.148Z,41.30
2023-04-13T12:55:00.024Z,40.96
2023-04-13T12:57:27.823Z,41.81
2023-04-13T12:59:55.427Z,41.57
2023-04-13T13:02:24.162Z,41.92
2023-04-13T13:04:55.946Z,41.70
2023-04-13T13:07:23.988Z,42.54
2023-04-13T13:09:51.503Z,42.44
2023-04-13T13:12:18.793Z,43.56
2023-04-13T13:14:46.269Z,42.60
2023-04-13T13:17:13.600Z,42.59
2023-04-13T13:19:40.885Z,43.11
2023-04-13T13:22:09.490Z,43.79
2023-04-13T13:24:36.798Z,43.46
2023-04-13T13:29:36.933Z,42.69
2023-04-13T13:32:04.391Z,44.50
2023-04-13T13:34:34.822Z,43.69
2023-04-13T13:37:02.055Z,44.31
2023-04-13T13:39:32.117Z,43.69
2023-04-13T13:41:59.440Z,43.62
2023-04-13T13:44:26.778Z,44.14
2023-04-13T13:46:54.103Z,44.69
2023-04-13T13:49:21.388Z,42.66
2023-04-13T13:51:48.665Z,42.56
2023-04-13T13:54:15.963Z,42.76
2023-04-13T13:56:44.589Z,43.13
2023-04-13T13:59:11.869Z,42.97
2023-04-13T14:01:39.600Z,42.77
2023-04-13T14:04:07.006Z,43.38
2023-04-13T14:06:34.318Z,44.05
2023-04-13T14:09:01.969Z,43.28
2023-04-13T14:11:30.226Z,44.66
2023-04-13T14:14:03.331Z,45.26
2023-04-13T14:16:38.736Z,44.62
2023-04-13T14:19:06.269Z,43.63
2023-04-13T14:21:33.567Z,44.87
2023-04-13T14:24:00.955Z,43.11
2023-04-13T14:26:28.235Z,43.14
2023-04-13T14:28:55.797Z,44.14
2023-04-13T14:31:24.593Z,42.65
2023-04-13T14:33:51.900Z,43.16
2023-04-13T14:36:19.368Z,43.60
2023-04-13T14:38:46.988Z,43.88
2023-04-13T14:41:14.256Z,43.00
2023-04-13T14:43:41.505Z,43.05
2023-04-13T14:46:10.809Z,44.32
2023-04-13T14:48:39.458Z,43.10
2023-04-13T14:51:07.119Z,43.64
2023-04-13T14:53:34.434Z,42.42
2023-04-13T14:56:01.754Z,43.96
2023-04-13T14:58:29.052Z,42.53
2023-04-13T15:00:56.350Z,42.34
2023-04-13T15:03:24.352Z,41.92
2023-04-13T15:06:01.049Z,42.70
2023-04-13T15:08:30.456Z,42.71
2023-04-13T15:10:57.702Z,42.14
2023-04-13T15:13:24.983Z,42.96
2023-04-13T15:15:52.327Z,42.50
2023-04-13T15:18:19.696Z,42.45
2023-04-13T15:20:47.022Z,42.42
2023-04-13T15:23:18.082Z,44.32
2023-04-13T15:25:47.467Z,43.59
2023-04-13T15:28:14.858Z,44.35
2023-04-13T15:30:43.285Z,43.19
2023-04-13T15:33:10.782Z,43.71
2023-04-13T15:35:38.436Z,42.98
2023-04-13T15:38:06.171Z,43.40
2023-04-13T15:40:34.895Z,43.59
2023-04-13T15:43:02.193Z,44.43
2023-04-13T15:45:29.465Z,42.86
2023-04-13T15:47:58.827Z,43.85
2023-04-13T15:50:26.357Z,43.62
2023-04-13T15:52:53.605Z,43.97
2023-04-13T15:55:21.101Z,44.74
2023-04-13T15:57:50.356Z,45.15
2023-04-13T16:00:18.274Z,45.65
2023-04-13T16:02:45.858Z,44.92
2023-04-13T16:05:13.574Z,45.23
2023-04-13T16:07:41.168Z,45.04
2023-04-13T16:10:15.327Z,45.81
2023-04-13T16:12:43.537Z,46.07
2023-04-13T16:15:12.828Z,45.98
2023-04-13T16:17:43.565Z,46.22
2023-04-13T16:20:21.259Z,47.14
2023-04-13T16:22:52.949Z,47.00
2023-04-13T16:25:20.570Z,47.39
2023-04-13T16:27:48.748Z,46.92
2023-04-13T16:30:19.993Z,46.15
2023-04-13T16:32:47.611Z,46.08
2023-04-13T16:35:14.888Z,46.16
2023-04-13T16:37:43.170Z,46.43
2023-04-13T16:40:11.553Z,46.63
2023-04-13T16:42:39.103Z,46.49
2023-04-13T16:45:07.252Z,46.91
2023-04-13T16:47:37.677Z,46.82
2023-04-13T16:50:05.289Z,46.57
2023-04-13T16:52:34.375Z,46.58
2023-04-13T16:55:02.470Z,46.62
2023-04-13T16:57:29.859Z,47.34
2023-04-13T16:59:58.640Z,47.97
2023-04-13T17:02:30.994Z,47.60
2023-04-13T17:05:01.109Z,47.69
2023-04-13T17:07:28.469Z,47.75
2023-04-13T17:09:55.999Z,48.87
2023-04-13T17:12:23.652Z,47.98
2023-04-13T17:14:51.014Z,48.58
2023-04-13T17:17:18.306Z,49.45
2023-04-13T17:19:45.611Z,49.77
2023-04-13T17:22:14.236Z,50.02
2023-04-13T17:24:44.749Z,48.58
2023-04-13T17:27:12.074Z,48.57
2023-04-13T17:29:39.727Z,48.69
2023-04-13T17:32:07.189Z,49.83
2023-04-13T17:34:34.571Z,49.52
2023-04-13T17:37:02.520Z,49.82
2023-04-13T17:39:34.728Z,49.94
2023-04-13T17:42:02.063Z,50.33
2023-04-13T17:44:29.345Z,50.31
2023-04-13T17:46:56.593Z,50.86
2023-04-13T17:49:26.072Z,51.48
2023-04-13T17:51:53.338Z,51.14
2023-04-13T17:54:20.639Z,50.94
2023-04-13T17:56:49.454Z,51.73
2023-04-13T17:59:16.778Z,52.52
2023-04-13T18:01:44.293Z,53.21
2023-04-13T18:04:12.402Z,51.91
2023-04-13T18:06:40.336Z,51.53
2023-04-13T18:09:08.802Z,53.03
2023-04-13T18:11:36.499Z,53.79
2023-04-13T18:14:05.356Z,54.65
2023-04-13T18:16:32.903Z,54.70
2023-04-13T18:19:01.109Z,56.29
2023-04-13T18:21:28.639Z,57.19
2023-04-13T18:23:55.937Z,57.29
2023-04-13T18:26:23.502Z,56.87
2023-04-13T18:28:50.823Z,57.32
2023-04-13T18:31:19.531Z,57.97
2023-04-13T18:33:46.813Z,58.53
2023-04-13T18:36:14.946Z,59.91
2023-04-13T18:38:42.319Z,59.53
2023-04-13T18:41:10.811Z,59.70
2023-04-13T18:43:38.271Z,60.15
2023-04-13T18:46:05.825Z,60.75
2023-04-13T18:48:34.565Z,60.06
2023-04-13T18:51:04.709Z,61.40
2023-04-13T18:53:32.053Z,60.70
2023-04-13T18:55:59.647Z,60.75
2023-04-13T18:58:27.222Z,60.69
2023-04-13T19:00:54.467Z,60.51
2023-04-13T19:03:21.905Z,60.13
2023-04-13T19:05:50.593Z,58.46
2023-04-13T19:08:17.849Z,59.57
2023-04-13T19:10:45.139Z,58.55
2023-04-13T19:13:14.195Z,58.18
2023-04-13T19:15:41.478Z,58.03
2023-04-13T19:18:11.175Z,55.84
2023-04-13T19:20:38.964Z,55.11
2023-04-13T19:23:07.741Z,56.13
2023-04-13T19:25:35.091Z,55.32
2023-04-13T19:28:02.505Z,56.17
2023-04-13T19:30:29.832Z,58.05
2023-04-13T19:32:57.211Z,57.57
2023-04-13T19:35:26.105Z,57.90
2023-04-13T19:37:53.615Z,57.34
2023-04-13T19:40:23.139Z,58.66
2023-04-13T19:42:50.484Z,59.67
2023-04-13T19:45:18.282Z,60.79
2023-04-13T19:47:46.238Z,61.11
2023-04-13T19:50:14.366Z,61.60
2023-04-13T19:52:42.320Z,62.30
2023-04-13T19:55:10.728Z,63.48
2023-04-13T19:57:42.061Z,63.75
2023-04-13T20:00:16.998Z,63.99
2023-04-13T20:02:45.137Z,64.41
2023-04-13T20:05:12.528Z,65.77
2023-04-13T20:07:39.794Z,65.37
2023-04-13T20:10:07.659Z,65.40
2023-04-13T20:12:34.938Z,64.76
2023-04-13T20:15:04.364Z,64.57
2023-04-13T20:17:32.705Z,64.78
2023-04-13T20:20:00.588Z,64.80
2023-04-13T20:22:28.089Z,63.92
2023-04-13T20:24:55.490Z,64.66
2023-04-13T20:27:22.852Z,65.14
2023-04-13T20:29:50.372Z,65.34
2023-04-13T20:32:19.021Z,65.14
2023-04-13T20:34:46.851Z,65.79
2023-04-13T20:37:14.470Z,65.48
2023-04-13T20:39:49.865Z,66.80
2023-04-13T20:42:18.099Z,67.21
2023-04-13T20:44:45.835Z,67.25
2023-04-13T20:47:13.693Z,66.23
2023-04-13T20:49:46.817Z,66.77
2023-04-13T20:52:14.476Z,66.70
2023-04-13T20:54:42.355Z,66.17
2023-04-13T20:57:10.699Z,65.31
2023-04-13T20:59:38.228Z,65.91
2023-04-13T21:02:05.718Z,64.45
2023-04-13T21:04:33.125Z,64.10
2023-04-13T21:07:02.443Z,63.07
2023-04-13T21:09:30.005Z,62.18
2023-04-13T21:11:57.536Z,61.86
2023-04-13T21:14:24.951Z,62.22
2023-04-13T21:16:52.512Z,62.73
2023-04-13T21:19:19.865Z,62.69
2023-04-13T21:21:47.219Z,63.59
2023-04-13T21:24:15.909Z,64.34
2023-04-13T21:26:43.156Z,64.54
2023-04-13T21:29:10.944Z,64.69
2023-04-13T21:31:38.240Z,64.71
2023-04-13T21:34:05.727Z,64.95
2023-04-13T21:39:04.179Z,65.91
2023-04-13T21:41:32.779Z,66.12
2023-04-13T21:44:00.370Z,67.28
2023-04-13T21:46:28.143Z,66.46
2023-04-13T21:48:55.547Z,66.82
2023-04-13T21:51:22.873Z,67.13
2023-04-13T21:53:52.304Z,66.16
2023-04-13T21:56:19.655Z,64.48
2023-04-13T21:58:48.480Z,63.22
2023-04-13T22:01:16.017Z,62.33
2023-04-13T22:03:44.213Z,62.13
2023-04-13T22:06:11.921Z,61.37
2023-04-13T22:08:39.843Z,61.43
2023-04-13T22:11:07.524Z,60.26
2023-04-13T22:13:34.885Z,60.34
2023-04-13T22:16:03.521Z,59.96
2023-04-13T22:18:30.838Z,60.46
2023-04-13T22:20:58.868Z,60.48
2023-04-13T22:23:26.323Z,60.66
2023-04-13T22:25:54.201Z,60.13
2023-04-13T22:28:21.468Z,60.71
2023-04-13T22:30:48.751Z,61.84
2023-04-13T22:33:17.342Z,61.27
2023-04-13T22:35:44.729Z,61.02
2023-04-13T22:38:11.996Z,61.88
2023-04-13T22:40:39.346Z,60.83
2023-04-13T22:43:06.656Z,61.23
2023-04-13T22:45:33.919Z,61.82
2023-04-13T22:48:01.262Z,63.19
2023-04-13T22:50:29.943Z,63.16
2023-04-13T22:52:57.199Z,64.84
2023-04-13T22:55:24.482Z,65.83
2023-04-13T22:57:51.730Z,65.77
2023-04-13T23:00:20.741Z,65.67
2023-04-13T23:02:50.228Z,65.51
2023-04-13T23:05:17.820Z,65.26
2023-04-13T23:07:46.399Z,65.34
2023-04-13T23:10:15.229Z,64.79
2023-04-13T23:12:43.906Z,65.61
2023-04-13T23:15:11.980Z,64.71
2023-04-13T23:17:39.289Z,66.24
2023-04-13T23:20:07.922Z,66.42
2023-04-13T23:22:35.224Z,65.73
2023-04-13T23:25:03.892Z,64.50
2023-04-13T23:27:31.144Z,65.21
2023-04-13T23:29:58.392Z,64.80
2023-04-13T23:32:25.765Z,64.43
2023-04-13T23:34:54.399Z,63.62
2023-04-13T23:37:21.998Z,64.16
2023-04-13T23:39:49.286Z,64.49
2023-04-13T23:42:17.836Z,64.78
2023-04-13T23:44:45.277Z,64.47
2023-04-13T23:47:12.570Z,64.03
2023-04-13T23:49:39.861Z,64.73
2023-04-13T23:52:07.560Z,64.58
2023-04-13T23:54:34.964Z,64.67
2023-04-13T23:57:02.579Z,64.38
2023-04-13T23:59:31.161Z,64.56
